sensor_id;sensor_type;location;lat;lon;timestamp;P1;durP1;ratioP1;P2;durP2;ratioP2
69981;SDS011;57319;56.274;43.980;2023-07-13T00:02:16;7.05;;;3.42;;
69981;SDS011;57319;56.274;43.980;2023-07-13T00:04:42;8.27;;;3.20;;
69981;SDS011;57319;56.274;43.980;2023-07-13T00:07:08;3.60;;;3.30;;
69981;SDS011;57319;56.274;43.980;2023-07-13T00:09:34;4.95;;;3.45;;
69981;SDS011;57319;56.274;43.980;2023-07-13T00:12:00;15.75;;;4.20;;
69981;SDS011;57319;56.274;43.980;2023-07-13T00:14:28;11.32;;;3.42;;
69981;SDS011;57319;56.274;43.980;2023-07-13T00:16:54;4.80;;;3.22;;
69981;SDS011;57319;56.274;43.980;2023-07-13T00:19:21;14.88;;;3.55;;
69981;SDS011;57319;56.274;43.980;2023-07-13T00:21:47;11.60;;;3.67;;
69981;SDS011;57319;56.274;43.980;2023-07-13T00:24:14;3.67;;;3.13;;
69981;SDS011;57319;56.274;43.980;2023-07-13T00:26:42;5.05;;;3.40;;
69981;SDS011;57319;56.274;43.980;2023-07-13T00:29:11;5.28;;;3.40;;
69981;SDS011;57319;56.274;43.980;2023-07-13T00:31:37;6.55;;;3.40;;
69981;SDS011;57319;56.274;43.980;2023-07-13T00:34:03;7.50;;;3.90;;
69981;SDS011;57319;56.274;43.980;2023-07-13T00:36:29;10.20;;;3.42;;
69981;SDS011;57319;56.274;43.980;2023-07-13T00:38:55;4.32;;;3.30;;
69981;SDS011;57319;56.274;43.980;2023-07-13T00:41:21;4.70;;;3.78;;
69981;SDS011;57319;56.274;43.980;2023-07-13T00:43:47;8.60;;;3.60;;
69981;SDS011;57319;56.274;43.980;2023-07-13T00:46:21;3.90;;;3.60;;
69981;SDS011;57319;56.274;43.980;2023-07-13T00:48:59;11.65;;;4.00;;
69981;SDS011;57319;56.274;43.980;2023-07-13T00:51:30;3.70;;;3.47;;
69981;SDS011;57319;56.274;43.980;2023-07-13T00:54:00;4.80;;;3.83;;
69981;SDS011;57319;56.274;43.980;2023-07-13T00:56:32;3.33;;;3.13;;
69981;SDS011;57319;56.274;43.980;2023-07-13T00:58:59;8.30;;;3.58;;
69981;SDS011;57319;56.274;43.980;2023-07-13T01:01:26;5.43;;;3.63;;
69981;SDS011;57319;56.274;43.980;2023-07-13T01:03:52;4.68;;;3.72;;
69981;SDS011;57319;56.274;43.980;2023-07-13T01:06:19;7.28;;;3.90;;
69981;SDS011;57319;56.274;43.980;2023-07-13T01:08:44;5.68;;;3.83;;
69981;SDS011;57319;56.274;43.980;2023-07-13T01:11:10;3.92;;;3.60;;
69981;SDS011;57319;56.274;43.980;2023-07-13T01:13:36;7.43;;;3.83;;
69981;SDS011;57319;56.274;43.980;2023-07-13T01:16:04;4.28;;;3.90;;
69981;SDS011;57319;56.274;43.980;2023-07-13T01:18:50;5.60;;;3.60;;
69981;SDS011;57319;56.274;43.980;2023-07-13T01:21:15;3.63;;;3.38;;
69981;SDS011;57319;56.274;43.980;2023-07-13T01:23:41;4.15;;;3.75;;
69981;SDS011;57319;56.274;43.980;2023-07-13T01:26:08;9.90;;;4.32;;
69981;SDS011;57319;56.274;43.980;2023-07-13T01:28:34;5.97;;;3.90;;
69981;SDS011;57319;56.274;43.980;2023-07-13T01:31:02;6.93;;;3.97;;
69981;SDS011;57319;56.274;43.980;2023-07-13T01:33:28;4.40;;;4.00;;
69981;SDS011;57319;56.274;43.980;2023-07-13T01:35:54;14.98;;;3.97;;
69981;SDS011;57319;56.274;43.980;2023-07-13T01:38:23;5.53;;;3.83;;
69981;SDS011;57319;56.274;43.980;2023-07-13T01:40:49;12.90;;;3.78;;
69981;SDS011;57319;56.274;43.980;2023-07-13T01:43:16;4.45;;;4.05;;
69981;SDS011;57319;56.274;43.980;2023-07-13T01:45:42;5.63;;;3.35;;
69981;SDS011;57319;56.274;43.980;2023-07-13T01:48:09;6.05;;;3.58;;
69981;SDS011;57319;56.274;43.980;2023-07-13T01:50:36;11.77;;;3.63;;
69981;SDS011;57319;56.274;43.980;2023-07-13T01:53:02;6.88;;;3.65;;
69981;SDS011;57319;56.274;43.980;2023-07-13T01:55:28;5.60;;;3.80;;
69981;SDS011;57319;56.274;43.980;2023-07-13T01:57:55;8.07;;;3.92;;
69981;SDS011;57319;56.274;43.980;2023-07-13T02:00:21;5.55;;;4.80;;
69981;SDS011;57319;56.274;43.980;2023-07-13T02:02:47;34.05;;;5.20;;
69981;SDS011;57319;56.274;43.980;2023-07-13T02:05:13;8.80;;;3.78;;
69981;SDS011;57319;56.274;43.980;2023-07-13T02:07:39;13.27;;;4.10;;
69981;SDS011;57319;56.274;43.980;2023-07-13T02:10:06;10.88;;;4.03;;
69981;SDS011;57319;56.274;43.980;2023-07-13T02:12:33;19.40;;;4.20;;
69981;SDS011;57319;56.274;43.980;2023-07-13T02:14:59;6.75;;;3.78;;
69981;SDS011;57319;56.274;43.980;2023-07-13T02:17:25;13.30;;;4.00;;
69981;SDS011;57319;56.274;43.980;2023-07-13T02:19:51;5.72;;;3.92;;
69981;SDS011;57319;56.274;43.980;2023-07-13T02:22:17;4.53;;;4.13;;
69981;SDS011;57319;56.274;43.980;2023-07-13T02:24:43;8.07;;;4.00;;
69981;SDS011;57319;56.274;43.980;2023-07-13T02:27:09;4.90;;;3.88;;
69981;SDS011;57319;56.274;43.980;2023-07-13T02:29:35;9.73;;;3.72;;
69981;SDS011;57319;56.274;43.980;2023-07-13T02:32:01;4.97;;;3.63;;
69981;SDS011;57319;56.274;43.980;2023-07-13T02:34:26;3.80;;;3.60;;
69981;SDS011;57319;56.274;43.980;2023-07-13T02:36:52;6.78;;;3.55;;
69981;SDS011;57319;56.274;43.980;2023-07-13T02:39:18;6.75;;;3.78;;
69981;SDS011;57319;56.274;43.980;2023-07-13T02:41:43;5.50;;;3.60;;
69981;SDS011;57319;56.274;43.980;2023-07-13T02:44:09;7.35;;;3.33;;
69981;SDS011;57319;56.274;43.980;2023-07-13T02:46:38;3.63;;;3.47;;
69981;SDS011;57319;56.274;43.980;2023-07-13T02:49:04;5.55;;;3.22;;
69981;SDS011;57319;56.274;43.980;2023-07-13T02:51:30;4.53;;;3.35;;
69981;SDS011;57319;56.274;43.980;2023-07-13T02:53:58;6.40;;;3.95;;
69981;SDS011;57319;56.274;43.980;2023-07-13T02:56:25;3.67;;;3.40;;
69981;SDS011;57319;56.274;43.980;2023-07-13T02:58:52;6.13;;;3.88;;
69981;SDS011;57319;56.274;43.980;2023-07-13T03:01:19;12.38;;;3.53;;
69981;SDS011;57319;56.274;43.980;2023-07-13T03:03:47;3.67;;;3.38;;
69981;SDS011;57319;56.274;43.980;2023-07-13T03:06:14;6.00;;;3.42;;
69981;SDS011;57319;56.274;43.980;2023-07-13T03:08:40;3.80;;;3.47;;
69981;SDS011;57319;56.274;43.980;2023-07-13T03:11:08;4.88;;;3.58;;
69981;SDS011;57319;56.274;43.980;2023-07-13T03:13:39;10.38;;;3.65;;
69981;SDS011;57319;56.274;43.980;2023-07-13T03:16:07;6.60;;;3.65;;
69981;SDS011;57319;56.274;43.980;2023-07-13T03:18:33;14.98;;;3.97;;
69981;SDS011;57319;56.274;43.980;2023-07-13T03:21:00;11.38;;;3.63;;
69981;SDS011;57319;56.274;43.980;2023-07-13T03:23:26;7.65;;;3.78;;
69981;SDS011;57319;56.274;43.980;2023-07-13T03:26:00;11.75;;;3.60;;
69981;SDS011;57319;56.274;43.980;2023-07-13T03:28:38;3.53;;;3.33;;
69981;SDS011;57319;56.274;43.980;2023-07-13T03:31:05;4.70;;;3.65;;
69981;SDS011;57319;56.274;43.980;2023-07-13T03:33:33;13.57;;;4.40;;
69981;SDS011;57319;56.274;43.980;2023-07-13T03:35:59;6.05;;;3.90;;
69981;SDS011;57319;56.274;43.980;2023-07-13T03:38:25;5.53;;;3.42;;
69981;SDS011;57319;56.274;43.980;2023-07-13T03:40:52;5.93;;;3.90;;
69981;SDS011;57319;56.274;43.980;2023-07-13T03:43:18;3.95;;;3.28;;
69981;SDS011;57319;56.274;43.980;2023-07-13T03:45:45;11.25;;;3.95;;
69981;SDS011;57319;56.274;43.980;2023-07-13T03:48:11;3.72;;;3.42;;
69981;SDS011;57319;56.274;43.980;2023-07-13T03:50:37;6.43;;;3.20;;
69981;SDS011;57319;56.274;43.980;2023-07-13T03:53:03;7.25;;;2.78;;
69981;SDS011;57319;56.274;43.980;2023-07-13T03:55:30;10.60;;;3.10;;
69981;SDS011;57319;56.274;43.980;2023-07-13T03:58:00;3.92;;;3.08;;
69981;SDS011;57319;56.274;43.980;2023-07-13T04:00:45;8.82;;;3.42;;
69981;SDS011;57319;56.274;43.980;2023-07-13T04:03:11;3.08;;;2.88;;
69981;SDS011;57319;56.274;43.980;2023-07-13T04:05:37;3.17;;;3.03;;
69981;SDS011;57319;56.274;43.980;2023-07-13T04:08:06;4.28;;;3.40;;
69981;SDS011;57319;56.274;43.980;2023-07-13T04:10:31;11.07;;;3.85;;
69981;SDS011;57319;56.274;43.980;2023-07-13T04:12:57;4.70;;;2.92;;
69981;SDS011;57319;56.274;43.980;2023-07-13T04:15:23;5.43;;;3.25;;
69981;SDS011;57319;56.274;43.980;2023-07-13T04:17:48;6.88;;;2.85;;
69981;SDS011;57319;56.274;43.980;2023-07-13T04:20:14;2.67;;;2.47;;
69981;SDS011;57319;56.274;43.980;2023-07-13T04:22:40;5.88;;;2.72;;
69981;SDS011;57319;56.274;43.980;2023-07-13T04:25:05;4.30;;;3.28;;
69981;SDS011;57319;56.274;43.980;2023-07-13T04:27:31;5.57;;;3.03;;
69981;SDS011;57319;56.274;43.980;2023-07-13T04:29:57;3.80;;;3.33;;
69981;SDS011;57319;56.274;43.980;2023-07-13T04:32:23;4.20;;;2.88;;
69981;SDS011;57319;56.274;43.980;2023-07-13T04:34:48;6.30;;;3.35;;
69981;SDS011;57319;56.274;43.980;2023-07-13T04:37:18;8.73;;;2.35;;
69981;SDS011;57319;56.274;43.980;2023-07-13T04:39:45;4.47;;;2.72;;
69981;SDS011;57319;56.274;43.980;2023-07-13T04:42:11;4.47;;;2.30;;
69981;SDS011;57319;56.274;43.980;2023-07-13T04:44:36;8.75;;;2.50;;
69981;SDS011;57319;56.274;43.980;2023-07-13T04:47:02;5.13;;;2.60;;
69981;SDS011;57319;56.274;43.980;2023-07-13T04:49:28;6.28;;;2.72;;
69981;SDS011;57319;56.274;43.980;2023-07-13T04:51:54;10.48;;;2.85;;
69981;SDS011;57319;56.274;43.980;2023-07-13T04:54:20;5.60;;;2.30;;
69981;SDS011;57319;56.274;43.980;2023-07-13T04:56:46;3.97;;;2.42;;
69981;SDS011;57319;56.274;43.980;2023-07-13T04:59:12;4.35;;;2.17;;
69981;SDS011;57319;56.274;43.980;2023-07-13T05:01:38;3.20;;;2.22;;
69981;SDS011;57319;56.274;43.980;2023-07-13T05:04:04;5.30;;;2.70;;
69981;SDS011;57319;56.274;43.980;2023-07-13T05:06:30;7.55;;;2.83;;
69981;SDS011;57319;56.274;43.980;2023-07-13T05:08:56;5.75;;;2.55;;
69981;SDS011;57319;56.274;43.980;2023-07-13T05:11:22;6.05;;;2.35;;
69981;SDS011;57319;56.274;43.980;2023-07-13T05:13:48;2.58;;;2.38;;
69981;SDS011;57319;56.274;43.980;2023-07-13T05:16:13;4.65;;;2.38;;
69981;SDS011;57319;56.274;43.980;2023-07-13T05:18:39;2.25;;;2.10;;
69981;SDS011;57319;56.274;43.980;2023-07-13T05:21:06;4.70;;;2.47;;
69981;SDS011;57319;56.274;43.980;2023-07-13T05:23:35;10.48;;;2.70;;
69981;SDS011;57319;56.274;43.980;2023-07-13T05:26:02;4.95;;;2.47;;
69981;SDS011;57319;56.274;43.980;2023-07-13T05:28:28;12.00;;;3.65;;
69981;SDS011;57319;56.274;43.980;2023-07-13T05:30:55;14.32;;;4.07;;
69981;SDS011;57319;56.274;43.980;2023-07-13T05:33:21;8.10;;;3.58;;
69981;SDS011;57319;56.274;43.980;2023-07-13T05:35:47;9.82;;;4.10;;
69981;SDS011;57319;56.274;43.980;2023-07-13T05:38:13;13.77;;;4.20;;
69981;SDS011;57319;56.274;43.980;2023-07-13T05:40:39;14.68;;;4.38;;
69981;SDS011;57319;56.274;43.980;2023-07-13T05:43:04;5.00;;;3.20;;
69981;SDS011;57319;56.274;43.980;2023-07-13T05:45:30;3.85;;;2.75;;
69981;SDS011;57319;56.274;43.980;2023-07-13T05:47:56;5.82;;;3.00;;
69981;SDS011;57319;56.274;43.980;2023-07-13T05:50:21;3.13;;;2.50;;
69981;SDS011;57319;56.274;43.980;2023-07-13T05:52:47;8.20;;;2.72;;
69981;SDS011;57319;56.274;43.980;2023-07-13T05:55:13;3.13;;;2.17;;
69981;SDS011;57319;56.274;43.980;2023-07-13T05:57:38;2.40;;;2.20;;
69981;SDS011;57319;56.274;43.980;2023-07-13T06:00:04;4.45;;;2.65;;
69981;SDS011;57319;56.274;43.980;2023-07-13T06:02:31;6.30;;;2.45;;
69981;SDS011;57319;56.274;43.980;2023-07-13T06:04:56;11.13;;;2.45;;
69981;SDS011;57319;56.274;43.980;2023-07-13T06:07:22;2.17;;;1.98;;
69981;SDS011;57319;56.274;43.980;2023-07-13T06:09:49;10.80;;;2.92;;
69981;SDS011;57319;56.274;43.980;2023-07-13T06:12:15;2.65;;;2.42;;
69981;SDS011;57319;56.274;43.980;2023-07-13T06:14:40;4.93;;;1.92;;
69981;SDS011;57319;56.274;43.980;2023-07-13T06:17:07;8.45;;;2.20;;
69981;SDS011;57319;56.274;43.980;2023-07-13T06:19:33;1.98;;;1.85;;
69981;SDS011;57319;56.274;43.980;2023-07-13T06:21:59;5.80;;;2.00;;
69981;SDS011;57319;56.274;43.980;2023-07-13T06:24:25;4.70;;;1.90;;
69981;SDS011;57319;56.274;43.980;2023-07-13T06:26:51;3.05;;;1.90;;
69981;SDS011;57319;56.274;43.980;2023-07-13T06:29:16;2.67;;;2.10;;
69981;SDS011;57319;56.274;43.980;2023-07-13T06:31:42;2.03;;;1.92;;
69981;SDS011;57319;56.274;43.980;2023-07-13T06:34:08;3.20;;;1.95;;
69981;SDS011;57319;56.274;43.980;2023-07-13T06:36:34;3.00;;;1.80;;
69981;SDS011;57319;56.274;43.980;2023-07-13T06:39:01;5.40;;;2.00;;
69981;SDS011;57319;56.274;43.980;2023-07-13T06:41:28;2.22;;;1.88;;
69981;SDS011;57319;56.274;43.980;2023-07-13T06:43:53;2.50;;;2.00;;
69981;SDS011;57319;56.274;43.980;2023-07-13T06:46:22;2.83;;;2.10;;
69981;SDS011;57319;56.274;43.980;2023-07-13T06:48:48;4.93;;;2.15;;
69981;SDS011;57319;56.274;43.980;2023-07-13T06:51:14;5.65;;;2.10;;
69981;SDS011;57319;56.274;43.980;2023-07-13T06:53:40;3.42;;;3.13;;
69981;SDS011;57319;56.274;43.980;2023-07-13T06:56:05;2.63;;;2.42;;
69981;SDS011;57319;56.274;43.980;2023-07-13T06:58:33;12.05;;;3.42;;
69981;SDS011;57319;56.274;43.980;2023-07-13T07:00:59;3.70;;;3.50;;
69981;SDS011;57319;56.274;43.980;2023-07-13T07:03:25;9.23;;;3.08;;
69981;SDS011;57319;56.274;43.980;2023-07-13T07:05:51;3.30;;;2.47;;
69981;SDS011;57319;56.274;43.980;2023-07-13T07:08:16;4.40;;;2.33;;
69981;SDS011;57319;56.274;43.980;2023-07-13T07:10:42;1.80;;;1.70;;
69981;SDS011;57319;56.274;43.980;2023-07-13T07:13:08;6.75;;;1.85;;
69981;SDS011;57319;56.274;43.980;2023-07-13T07:15:34;2.03;;;1.80;;
69981;SDS011;57319;56.274;43.980;2023-07-13T07:18:00;2.20;;;2.00;;
69981;SDS011;57319;56.274;43.980;2023-07-13T07:20:26;1.95;;;1.85;;
69981;SDS011;57319;56.274;43.980;2023-07-13T07:22:52;1.80;;;1.70;;
69981;SDS011;57319;56.274;43.980;2023-07-13T07:25:18;2.50;;;1.70;;
69981;SDS011;57319;56.274;43.980;2023-07-13T07:27:45;2.03;;;1.42;;
69981;SDS011;57319;56.274;43.980;2023-07-13T07:30:11;3.85;;;2.45;;
69981;SDS011;57319;56.274;43.980;2023-07-13T07:32:37;6.05;;;2.22;;
69981;SDS011;57319;56.274;43.980;2023-07-13T07:35:03;7.43;;;2.78;;
69981;SDS011;57319;56.274;43.980;2023-07-13T07:37:29;5.30;;;2.67;;
69981;SDS011;57319;56.274;43.980;2023-07-13T07:39:55;2.88;;;2.67;;
69981;SDS011;57319;56.274;43.980;2023-07-13T07:42:21;4.88;;;3.38;;
69981;SDS011;57319;56.274;43.980;2023-07-13T07:44:46;3.00;;;2.70;;
69981;SDS011;57319;56.274;43.980;2023-07-13T07:47:12;2.65;;;2.53;;
69981;SDS011;57319;56.274;43.980;2023-07-13T07:49:38;3.08;;;2.15;;
69981;SDS011;57319;56.274;43.980;2023-07-13T07:52:03;15.20;;;2.25;;
69981;SDS011;57319;56.274;43.980;2023-07-13T07:54:29;3.80;;;2.35;;
69981;SDS011;57319;56.274;43.980;2023-07-13T07:56:55;2.83;;;2.20;;
69981;SDS011;57319;56.274;43.980;2023-07-13T07:59:21;4.57;;;2.30;;
69981;SDS011;57319;56.274;43.980;2023-07-13T08:01:47;2.10;;;2.00;;
69981;SDS011;57319;56.274;43.980;2023-07-13T08:04:16;3.65;;;2.08;;
69981;SDS011;57319;56.274;43.980;2023-07-13T08:06:41;6.28;;;3.00;;
69981;SDS011;57319;56.274;43.980;2023-07-13T08:09:07;2.88;;;2.67;;
69981;SDS011;57319;56.274;43.980;2023-07-13T08:11:33;3.67;;;2.17;;
69981;SDS011;57319;56.274;43.980;2023-07-13T08:13:59;4.88;;;2.10;;
69981;SDS011;57319;56.274;43.980;2023-07-13T08:16:25;3.58;;;2.10;;
69981;SDS011;57319;56.274;43.980;2023-07-13T08:18:51;3.30;;;2.60;;
69981;SDS011;57319;56.274;43.980;2023-07-13T08:21:17;5.03;;;2.08;;
69981;SDS011;57319;56.274;43.980;2023-07-13T08:23:45;18.35;;;2.80;;
69981;SDS011;57319;56.274;43.980;2023-07-13T08:26:11;13.93;;;2.42;;
69981;SDS011;57319;56.274;43.980;2023-07-13T08:28:36;4.05;;;2.65;;
69981;SDS011;57319;56.274;43.980;2023-07-13T08:31:03;8.63;;;2.83;;
69981;SDS011;57319;56.274;43.980;2023-07-13T08:33:29;6.45;;;2.30;;
69981;SDS011;57319;56.274;43.980;2023-07-13T08:35:55;5.18;;;2.30;;
69981;SDS011;57319;56.274;43.980;2023-07-13T08:38:22;2.33;;;2.20;;
69981;SDS011;57319;56.274;43.980;2023-07-13T08:40:52;4.13;;;2.50;;
69981;SDS011;57319;56.274;43.980;2023-07-13T08:43:22;2.75;;;2.40;;
69981;SDS011;57319;56.274;43.980;2023-07-13T08:48:49;4.15;;;2.28;;
69981;SDS011;57319;56.274;43.980;2023-07-13T08:51:26;4.85;;;2.55;;
69981;SDS011;57319;56.274;43.980;2023-07-13T08:54:07;4.50;;;2.38;;
69981;SDS011;57319;56.274;43.980;2023-07-13T08:56:43;2.63;;;2.42;;
69981;SDS011;57319;56.274;43.980;2023-07-13T08:59:15;2.25;;;2.15;;
69981;SDS011;57319;56.274;43.980;2023-07-13T09:04:29;2.67;;;2.47;;
69981;SDS011;57319;56.274;43.980;2023-07-13T09:12:59;2.47;;;2.38;;
69981;SDS011;57319;56.274;43.980;2023-07-13T09:15:43;4.50;;;2.10;;
69981;SDS011;57319;56.274;43.980;2023-07-13T09:18:17;5.82;;;1.90;;
69981;SDS011;57319;56.274;43.980;2023-07-13T09:20:53;2.08;;;1.88;;
69981;SDS011;57319;56.274;43.980;2023-07-13T09:23:23;5.63;;;2.10;;
69981;SDS011;57319;56.274;43.980;2023-07-13T09:25:55;9.95;;;1.80;;
69981;SDS011;57319;56.274;43.980;2023-07-13T09:28:33;3.85;;;1.83;;
69981;SDS011;57319;56.274;43.980;2023-07-13T09:31:06;1.95;;;1.92;;
69981;SDS011;57319;56.274;43.980;2023-07-13T09:33:39;11.25;;;2.55;;
69981;SDS011;57319;56.274;43.980;2023-07-13T09:36:21;2.70;;;2.40;;
69981;SDS011;57319;56.274;43.980;2023-07-13T09:38:49;3.92;;;2.50;;
69981;SDS011;57319;56.274;43.980;2023-07-13T09:46:27;4.38;;;2.40;;
69981;SDS011;57319;56.274;43.980;2023-07-13T09:48:53;14.25;;;3.03;;
69981;SDS011;57319;56.274;43.980;2023-07-13T09:51:21;13.88;;;2.90;;
69981;SDS011;57319;56.274;43.980;2023-07-13T09:53:47;4.35;;;3.13;;
69981;SDS011;57319;56.274;43.980;2023-07-13T09:56:24;8.77;;;3.28;;
69981;SDS011;57319;56.274;43.980;2023-07-13T09:58:52;8.32;;;3.03;;
69981;SDS011;57319;56.274;43.980;2023-07-13T10:01:31;3.92;;;3.58;;
69981;SDS011;57319;56.274;43.980;2023-07-13T10:03:59;8.55;;;3.28;;
69981;SDS011;57319;56.274;43.980;2023-07-13T10:06:24;6.80;;;2.85;;
69981;SDS011;57319;56.274;43.980;2023-07-13T10:08:52;8.95;;;3.20;;
69981;SDS011;57319;56.274;43.980;2023-07-13T10:11:19;5.40;;;3.53;;
69981;SDS011;57319;56.274;43.980;2023-07-13T10:13:59;5.72;;;3.63;;
69981;SDS011;57319;56.274;43.980;2023-07-13T10:16:48;6.68;;;3.83;;
69981;SDS011;57319;56.274;43.980;2023-07-13T10:19:23;16.02;;;4.28;;
69981;SDS011;57319;56.274;43.980;2023-07-13T10:21:56;10.15;;;5.10;;
69981;SDS011;57319;56.274;43.980;2023-07-13T10:24:43;18.42;;;4.85;;
69981;SDS011;57319;56.274;43.980;2023-07-13T10:29:43;6.00;;;3.70;;
69981;SDS011;57319;56.274;43.980;2023-07-13T10:32:13;10.77;;;3.33;;
69981;SDS011;57319;56.274;43.980;2023-07-13T10:34:40;16.05;;;3.47;;
69981;SDS011;57319;56.274;43.980;2023-07-13T10:37:18;5.50;;;3.25;;
69981;SDS011;57319;56.274;43.980;2023-07-13T10:39:48;5.40;;;2.70;;
69981;SDS011;57319;56.274;43.980;2023-07-13T10:42:18;6.38;;;2.92;;
69981;SDS011;57319;56.274;43.980;2023-07-13T10:45:04;5.60;;;4.65;;
69981;SDS011;57319;56.274;43.980;2023-07-13T10:47:41;7.25;;;5.13;;
69981;SDS011;57319;56.274;43.980;2023-07-13T10:50:13;10.98;;;5.68;;
69981;SDS011;57319;56.274;43.980;2023-07-13T10:52:47;10.57;;;6.53;;
69981;SDS011;57319;56.274;43.980;2023-07-13T10:58:13;11.07;;;4.10;;
69981;SDS011;57319;56.274;43.980;2023-07-13T11:00:46;5.20;;;2.50;;
69981;SDS011;57319;56.274;43.980;2023-07-13T11:03:15;2.72;;;2.00;;
69981;SDS011;57319;56.274;43.980;2023-07-13T11:05:44;15.38;;;2.35;;
69981;SDS011;57319;56.274;43.980;2023-07-13T11:10:49;9.05;;;2.40;;
69981;SDS011;57319;56.274;43.980;2023-07-13T11:18:52;8.43;;;2.22;;
69981;SDS011;57319;56.274;43.980;2023-07-13T11:21:28;4.22;;;1.95;;
69981;SDS011;57319;56.274;43.980;2023-07-13T11:24:03;2.63;;;1.83;;
69981;SDS011;57319;56.274;43.980;2023-07-13T11:26:43;6.63;;;2.33;;
69981;SDS011;57319;56.274;43.980;2023-07-13T11:31:59;2.33;;;2.17;;
69981;SDS011;57319;56.274;43.980;2023-07-13T11:34:34;12.00;;;2.80;;
69981;SDS011;57319;56.274;43.980;2023-07-13T11:37:03;7.82;;;3.58;;
69981;SDS011;57319;56.274;43.980;2023-07-13T11:39:29;6.22;;;4.20;;
69981;SDS011;57319;56.274;43.980;2023-07-13T11:42:02;8.38;;;3.55;;
69981;SDS011;57319;56.274;43.980;2023-07-13T11:44:32;8.25;;;3.65;;
69981;SDS011;57319;56.274;43.980;2023-07-13T11:46:59;5.43;;;3.38;;
69981;SDS011;57319;56.274;43.980;2023-07-13T11:49:40;6.32;;;3.50;;
69981;SDS011;57319;56.274;43.980;2023-07-13T11:52:11;4.07;;;3.60;;
69981;SDS011;57319;56.274;43.980;2023-07-13T11:55:41;4.80;;;3.45;;
69981;SDS011;57319;56.274;43.980;2023-07-13T11:57:41;3.00;;;2.72;;
69981;SDS011;57319;56.274;43.980;2023-07-13T12:00:13;6.05;;;2.97;;
69981;SDS011;57319;56.274;43.980;2023-07-13T12:02:45;7.28;;;3.78;;
69981;SDS011;57319;56.274;43.980;2023-07-13T12:05:13;6.82;;;4.22;;
69981;SDS011;57319;56.274;43.980;2023-07-13T12:07:40;10.18;;;3.38;;
69981;SDS011;57319;56.274;43.980;2023-07-13T12:12:56;5.97;;;2.30;;
69981;SDS011;57319;56.274;43.980;2023-07-13T12:15:26;6.25;;;2.67;;
69981;SDS011;57319;56.274;43.980;2023-07-13T12:18:14;6.95;;;1.95;;
69981;SDS011;57319;56.274;43.980;2023-07-13T12:20:43;7.57;;;2.03;;
69981;SDS011;57319;56.274;43.980;2023-07-13T12:23:15;4.47;;;2.42;;
69981;SDS011;57319;56.274;43.980;2023-07-13T12:25:46;3.65;;;2.70;;
69981;SDS011;57319;56.274;43.980;2023-07-13T12:33:56;3.75;;;2.45;;
69981;SDS011;57319;56.274;43.980;2023-07-13T12:36:26;5.80;;;3.63;;
69981;SDS011;57319;56.274;43.980;2023-07-13T12:38:57;12.48;;;3.03;;
69981;SDS011;57319;56.274;43.980;2023-07-13T12:41:29;11.57;;;3.15;;
69981;SDS011;57319;56.274;43.980;2023-07-13T12:43:55;8.75;;;4.03;;
69981;SDS011;57319;56.274;43.980;2023-07-13T12:46:23;10.10;;;5.30;;
69981;SDS011;57319;56.274;43.980;2023-07-13T12:48:54;10.98;;;4.88;;
69981;SDS011;57319;56.274;43.980;2023-07-13T12:51:24;19.58;;;5.50;;
69981;SDS011;57319;56.274;43.980;2023-07-13T12:54:06;17.92;;;5.80;;
69981;SDS011;57319;56.274;43.980;2023-07-13T12:56:38;16.58;;;6.18;;
69981;SDS011;57319;56.274;43.980;2023-07-13T12:59:04;10.10;;;4.93;;
69981;SDS011;57319;56.274;43.980;2023-07-13T13:01:33;2.92;;;2.53;;
69981;SDS011;57319;56.274;43.980;2023-07-13T13:04:02;2.85;;;2.65;;
69981;SDS011;57319;56.274;43.980;2023-07-13T13:06:34;4.00;;;2.55;;
69981;SDS011;57319;56.274;43.980;2023-07-13T13:09:02;3.08;;;2.42;;
69981;SDS011;57319;56.274;43.980;2023-07-13T13:11:29;7.40;;;3.58;;
69981;SDS011;57319;56.274;43.980;2023-07-13T13:13:56;8.70;;;3.50;;
69981;SDS011;57319;56.274;43.980;2023-07-13T13:16:23;9.95;;;4.07;;
69981;SDS011;57319;56.274;43.980;2023-07-13T13:18:53;15.30;;;4.28;;
69981;SDS011;57319;56.274;43.980;2023-07-13T13:21:22;15.82;;;3.47;;
69981;SDS011;57319;56.274;43.980;2023-07-13T13:23:49;5.40;;;2.42;;
69981;SDS011;57319;56.274;43.980;2023-07-13T13:26:16;4.35;;;2.50;;
69981;SDS011;57319;56.274;43.980;2023-07-13T13:28:49;9.77;;;3.22;;
69981;SDS011;57319;56.274;43.980;2023-07-13T13:31:15;4.22;;;3.20;;
69981;SDS011;57319;56.274;43.980;2023-07-13T13:33:41;3.17;;;2.45;;
69981;SDS011;57319;56.274;43.980;2023-07-13T13:36:17;2.33;;;2.22;;
69981;SDS011;57319;56.274;43.980;2023-07-13T13:38:45;1.70;;;1.70;;
69981;SDS011;57319;56.274;43.980;2023-07-13T13:41:13;2.05;;;1.95;;
69981;SDS011;57319;56.274;43.980;2023-07-13T13:43:40;3.13;;;2.50;;
69981;SDS011;57319;56.274;43.980;2023-07-13T13:46:17;7.85;;;3.38;;
69981;SDS011;57319;56.274;43.980;2023-07-13T13:48:46;3.83;;;3.55;;
69981;SDS011;57319;56.274;43.980;2023-07-13T13:51:30;8.98;;;4.65;;
69981;SDS011;57319;56.274;43.980;2023-07-13T13:53:56;9.63;;;6.68;;
69981;SDS011;57319;56.274;43.980;2023-07-13T13:56:22;9.13;;;5.90;;
69981;SDS011;57319;56.274;43.980;2023-07-13T13:58:48;6.40;;;5.03;;
69981;SDS011;57319;56.274;43.980;2023-07-13T14:01:18;4.88;;;4.00;;
69981;SDS011;57319;56.274;43.980;2023-07-13T14:03:45;5.50;;;3.95;;
69981;SDS011;57319;56.274;43.980;2023-07-13T14:06:14;4.40;;;3.97;;
69981;SDS011;57319;56.274;43.980;2023-07-13T14:08:41;3.00;;;2.70;;
69981;SDS011;57319;56.274;43.980;2023-07-13T14:11:14;3.13;;;2.72;;
69981;SDS011;57319;56.274;43.980;2023-07-13T14:13:42;9.13;;;4.00;;
69981;SDS011;57319;56.274;43.980;2023-07-13T14:16:15;8.20;;;4.40;;
69981;SDS011;57319;56.274;43.980;2023-07-13T14:18:45;2.53;;;2.33;;
69981;SDS011;57319;56.274;43.980;2023-07-13T14:21:15;3.58;;;2.03;;
69981;SDS011;57319;56.274;43.980;2023-07-13T14:23:43;7.65;;;2.33;;
69981;SDS011;57319;56.274;43.980;2023-07-13T14:26:21;7.53;;;2.55;;
69981;SDS011;57319;56.274;43.980;2023-07-13T14:28:49;5.25;;;2.80;;
69981;SDS011;57319;56.274;43.980;2023-07-13T14:31:17;7.30;;;2.30;;
69981;SDS011;57319;56.274;43.980;2023-07-13T14:33:44;5.30;;;2.30;;
69981;SDS011;57319;56.274;43.980;2023-07-13T14:38:45;3.15;;;2.70;;
69981;SDS011;57319;56.274;43.980;2023-07-13T14:41:10;7.72;;;2.95;;
69981;SDS011;57319;56.274;43.980;2023-07-13T14:43:36;6.35;;;2.50;;
69981;SDS011;57319;56.274;43.980;2023-07-13T14:46:02;3.22;;;2.95;;
69981;SDS011;57319;56.274;43.980;2023-07-13T14:48:29;1.77;;;1.75;;
69981;SDS011;57319;56.274;43.980;2023-07-13T14:50:57;3.08;;;2.05;;
69981;SDS011;57319;56.274;43.980;2023-07-13T14:53:26;8.93;;;2.70;;
69981;SDS011;57319;56.274;43.980;2023-07-13T14:55:53;3.53;;;3.25;;
69981;SDS011;57319;56.274;43.980;2023-07-13T14:58:19;5.22;;;3.83;;
69981;SDS011;57319;56.274;43.980;2023-07-13T15:00:45;3.95;;;3.65;;
69981;SDS011;57319;56.274;43.980;2023-07-13T15:03:18;3.80;;;3.47;;
69981;SDS011;57319;56.274;43.980;2023-07-13T15:05:47;10.43;;;3.30;;
69981;SDS011;57319;56.274;43.980;2023-07-13T15:08:13;14.43;;;5.60;;
69981;SDS011;57319;56.274;43.980;2023-07-13T15:10:40;11.50;;;5.50;;
69981;SDS011;57319;56.274;43.980;2023-07-13T15:13:13;16.50;;;5.95;;
69981;SDS011;57319;56.274;43.980;2023-07-13T15:15:44;11.63;;;5.55;;
69981;SDS011;57319;56.274;43.980;2023-07-13T15:18:12;8.35;;;4.32;;
69981;SDS011;57319;56.274;43.980;2023-07-13T15:20:42;8.90;;;5.32;;
69981;SDS011;57319;56.274;43.980;2023-07-13T15:23:10;6.75;;;4.28;;
69981;SDS011;57319;56.274;43.980;2023-07-13T15:25:37;2.65;;;2.45;;